Timaru Star — VRAA7 — position and weather

sailwx.info

Track history (hours):
 
Tides and Currents Weather Stations Pressure Air Temp Water Temp Dewpoint Dewpoint Depression Visibility Wind Speed Wind Dir Waves Ship Positions

Timaru Star

Last reported at 2018-Feb-11 01:42 UTC. Time now 2018-Feb-23 18:45 UTC.
Position N 48°19' W 125°17'.
Warning: this ship's position is 12 days out of date.

Length 175 m; draft 6.2 m.

Type: Cargo ship. MMSI: 367002208.

Date/timePositionNaut miles runAvg speedWind from/ knotsBaromVisibWave heightAir tempDewpointWater temp
2018-Feb-11 01:42N 48°19' W 125°17'311.0
2018-Feb-11 01:25N 48°21' W 125°13'710.3
2018-Feb-11 00:44N 48°26' W 125°06'310.4
2018-Feb-11 00:26N 48°28' W 125°03'4 9.9
2018-Feb-11 00:00N 48°31' W 124°58'510.7
2018-Feb-10 23:30N 48°31' W 124°50'611.0
2018-Feb-10 23:00N 48°30' W 124°42'511.1
2018-Feb-10 22:30N 48°28' W 124°34'611.1
2018-Feb-10 22:00N 48°26' W 124°26'510.9
2018-Feb-10 21:30N 48°24' W 124°19'510.7
2018-Feb-10 21:00N 48°22' W 124°11'510.6
2018-Feb-10 20:31N 48°20' W 124°04'510.6
2018-Feb-10 20:00N 48°18' W 123°56'22 8.8
2018-Feb-10 17:29N 48°23' W 123°24'5 9.7
2018-Feb-10 17:00N 48°23' W 123°17'510.6
2018-Feb-10 16:31N 48°28' W 123°12'713.3
2018-Feb-10 16:01N 48°34' W 123°13'713.3
2018-Feb-10 15:30N 48°41' W 123°15'611.8
2018-Feb-10 15:01N 48°44' W 123°08'612.7
2018-Feb-10 14:30N 48°48' W 123°00'612.8
2018-Feb-10 14:00N 48°53' W 123°07'612.9
2018-Feb-10 13:30N 48°58' W 123°14'713.0
2018-Feb-10 13:00N 49°02' W 123°21'611.1
2018-Feb-10 12:30N 49°08' W 123°23'713.0
2018-Feb-10 12:00N 49°14' W 123°21'611.1
2018-Feb-10 11:30N 49°19' W 123°16'3 4.8
2018-Feb-10 10:59N 49°20' W 123°13'0 0.2
2018-Feb-10 10:29N 49°20' W 123°13'0 0.0
2018-Feb-10 09:59N 49°20' W 123°13'0 0.2
2018-Feb-10 09:29N 49°20' W 123°13'0 0.1
2018-Feb-10 08:56N 49°20' W 123°13'0 0.1
2018-Feb-10 08:29N 49°20' W 123°13'0 0.1
2018-Feb-10 07:59N 49°20' W 123°13'0 0.1
2018-Feb-10 07:29N 49°20' W 123°13'0 0.1
2018-Feb-10 06:59N 49°20' W 123°13'0 0.0
2018-Feb-10 06:29N 49°20' W 123°13'0 0.1
2018-Feb-10 05:59N 49°20' W 123°13'0 0.1
2018-Feb-10 05:29N 49°20' W 123°13'0 0.0
2018-Feb-10 04:59N 49°20' W 123°13'0 0.0
2018-Feb-10 04:26N 49°20' W 123°13'0 0.1
2018-Feb-10 03:59N 49°20' W 123°13'0 0.1
2018-Feb-10 03:29N 49°20' W 123°13'0 0.0
2018-Feb-10 02:59N 49°20' W 123°13'0 0.0
2018-Feb-10 02:29N 49°20' W 123°13'0 0.0
2018-Feb-10 01:59N 49°20' W 123°13'0 0.0
2018-Feb-10 01:26N 49°20' W 123°13'0 0.1
2018-Feb-10 00:59N 49°20' W 123°13'0 0.0
2018-Feb-10 00:29N 49°20' W 123°13'0 0.1
2018-Feb-09 23:56N 49°20' W 123°13'0 0.2
2018-Feb-09 23:29N 49°20' W 123°13'0 0.1
2018-Feb-09 22:59N 49°20' W 123°13'0 0.0
2018-Feb-09 22:44N 49°20' W 123°13'0 0.0
2018-Feb-09 17:31N 49°20' W 123°13'0 0.0
2018-Feb-09 16:31N 49°20' W 123°13'6 1.1
2018-Feb-09 10:30N 49°18' W 123°04'0 0.0
2018-Feb-08 03:30N 49°18' W 123°04'1 2.9
2018-Feb-08 03:00N 49°18' W 123°06'3 6.2
2018-Feb-08 02:30N 49°17' W 123°11'0 0.1
2018-Feb-08 01:25N 49°17' W 123°11'0 0.1
2018-Feb-08 00:58N 49°17' W 123°11'0 0.1
2018-Feb-08 00:28N 49°17' W 123°11'0 0.2
2018-Feb-07 23:58N 49°17' W 123°11'0 0.0
2018-Feb-07 23:16N 49°17' W 123°11'0 0.0
2018-Feb-07 22:58N 49°17' W 123°11'0 0.1
2018-Feb-07 22:28N 49°17' W 123°11'0 0.1
2018-Feb-07 21:58N 49°17' W 123°11'0 0.0
2018-Feb-07 21:28N 49°17' W 123°11'59 4.9
2018-Feb-07 09:29N 48°18' W 123°25'5 8.8
2018-Feb-07 08:57N 48°14' W 123°28'510.0
2018-Feb-07 08:28N 48°13' W 123°36'11 8.7
2018-Feb-07 07:12N 48°13' W 123°52'310.6
2018-Feb-07 06:54N 48°14' W 123°57'410.2
2018-Feb-07 06:30N 48°15' W 124°02'4 8.5
2018-Feb-07 06:00N 48°17' W 124°08'5 9.3
2018-Feb-07 05:30N 48°19' W 124°14'611.4
2018-Feb-07 05:00N 48°22' W 124°22'511.1
2018-Feb-07 04:30N 48°24' W 124°30'4 8.1
2018-Feb-07 04:00N 48°26' W 124°35'4 8.8
2018-Feb-07 03:30N 48°28' W 124°41'611.2
2018-Feb-07 02:58N 48°28' W 124°50'510.1
2018-Feb-07 02:30N 48°29' W 124°57'510.8
2018-Feb-07 02:00N 48°25' W 125°03'6 8.3
2018-Feb-07 01:17N 48°19' W 125°07'1 3.8
2018-Feb-07 00:58N 48°18' W 125°08'9511.6
2018-Feb-06 16:44N 46°51' W 126°04'512.2
2018-Feb-06 16:20N 46°46' W 126°03'412.2
2018-Feb-06 15:59N 46°42' W 126°01'612.3
2018-Feb-06 15:30N 46°36' W 125°59'510.5
2018-Feb-06 15:00N 46°34' W 125°53'711.7
2018-Feb-06 14:27N 46°32' W 125°43'611.7
2018-Feb-06 13:53N 46°30' W 125°35'511.8
2018-Feb-06 13:28N 46°28' W 125°28'511.7
2018-Feb-06 13:00N 46°27' W 125°20'611.7
2018-Feb-06 12:30N 46°25' W 125°12'611.4
2018-Feb-06 12:00N 46°23' W 125°04'611.4
2018-Feb-06 11:30N 46°22' W 124°56'611.1
2018-Feb-06 11:00N 46°20' W 124°48'510.9
2018-Feb-06 10:30N 46°18' W 124°41'510.6
2018-Feb-06 10:00N 46°17' W 124°34'510.8
2018-Feb-06 09:30N 46°15' W 124°26'611.1
2018-Feb-06 09:00N 46°13' W 124°19'710.7
2018-Feb-06 08:23N 46°13' W 124°09'910.3
2018-Feb-06 07:30N 46°12' W 123°56'510.7
2018-Feb-06 07:00N 46°12' W 123°48'1612.4
2018-Feb-06 05:44N 46°15' W 123°26'26 7.9
2018-Feb-06 02:28N 46°03' W 122°53'0 0.0
2018-Feb-06 01:58N 46°03' W 122°53'0 0.0
2018-Feb-06 01:28N 46°03' W 122°53'0 0.0
2018-Feb-06 00:58N 46°03' W 122°53'0 0.0
2018-Feb-06 00:28N 46°03' W 122°53'0 0.0
2018-Feb-05 23:55N 46°03' W 122°53'0 0.0
2018-Feb-05 23:28N 46°03' W 122°53'0 0.0
2018-Feb-05 22:58N 46°03' W 122°53'0 0.0
2018-Feb-05 22:25N 46°03' W 122°53'0 0.0
2018-Feb-05 21:58N 46°03' W 122°53'0 0.0
2018-Feb-05 21:25N 46°03' W 122°53'0 0.0
2018-Feb-05 20:49N 46°03' W 122°53'0 0.0
2018-Feb-05 20:22N 46°03' W 122°53'0 0.0
2018-Feb-05 19:58N 46°03' W 122°53'0 0.0
2018-Feb-05 19:28N 46°03' W 122°53'0 0.0
2018-Feb-05 18:58N 46°03' W 122°53'0 0.0
2018-Feb-05 18:28N 46°03' W 122°53'0 0.0
2018-Feb-05 17:52N 46°03' W 122°53'0 0.0
2018-Feb-05 17:25N 46°03' W 122°53'0 0.0
2018-Feb-05 16:55N 46°03' W 122°53'0 0.0
2018-Feb-05 16:25N 46°03' W 122°53'0 0.0
2018-Feb-05 15:58N 46°03' W 122°53'0 0.0
2018-Feb-05 15:28N 46°03' W 122°53'0 0.0
2018-Feb-05 14:55N 46°03' W 122°53'0 0.0
2018-Feb-05 14:28N 46°03' W 122°53'0 0.0
2018-Feb-05 13:58N 46°03' W 122°53'0 0.0
2018-Feb-05 13:19N 46°03' W 122°53'0 0.0
2018-Feb-05 12:58N 46°03' W 122°53'0 0.0
2018-Feb-05 12:28N 46°03' W 122°53'0 0.0
2018-Feb-05 11:58N 46°03' W 122°53'0 0.0
2018-Feb-05 11:28N 46°03' W 122°53'0 0.0
2018-Feb-05 10:58N 46°03' W 122°53'0 0.0
2018-Feb-05 10:28N 46°03' W 122°53'0 0.0
2018-Feb-05 09:58N 46°03' W 122°53'0 0.0
2018-Feb-05 09:25N 46°03' W 122°53'0 0.0
2018-Feb-05 08:58N 46°03' W 122°53'0 0.0
2018-Feb-05 08:22N 46°03' W 122°53'0 0.0
2018-Feb-05 07:58N 46°03' W 122°53'0 0.0
2018-Feb-05 07:25N 46°03' W 122°53'0 0.0
2018-Feb-05 06:58N 46°03' W 122°53'0 0.0
2018-Feb-05 06:28N 46°03' W 122°53'0 0.0
2018-Feb-05 05:25N 46°03' W 122°53'0 0.0
2018-Feb-05 04:58N 46°03' W 122°53'0 0.0
2018-Feb-05 04:25N 46°03' W 122°53'1 1.7
2018-Feb-05 04:00N 46°03' W 122°53'4 8.5
2018-Feb-05 03:30N 46°06' W 122°57'611.1
2018-Feb-05 03:00N 46°10' W 123°04'510.8
2018-Feb-05 02:30N 46°11' W 123°11'611.7
2018-Feb-05 02:00N 46°09' W 123°19'510.5
2018-Feb-05 01:30N 46°11' W 123°26'611.1
2018-Feb-05 01:00N 46°16' W 123°29'612.8
2018-Feb-05 00:30N 46°16' W 123°38'713.0
2018-Feb-05 00:00N 46°13' W 123°46'5 9.7
2018-Feb-04 23:30N 46°11' W 123°53'611.5
2018-Feb-04 23:00N 46°15' W 124°00'611.5
2018-Feb-04 22:31N 46°13' W 124°08'9 7.4
2018-Feb-04 21:15N 46°06' W 124°16'2 8.6
2018-Feb-04 21:01N 46°04' W 124°18'9 8.0
2018-Feb-04 19:56N 45°57' W 124°25'3 8.2
2018-Feb-04 19:31N 45°54' W 124°27'4 7.9
2018-Feb-04 19:00N 45°51' W 124°31'510.1
2018-Feb-04 18:30N 45°47' W 124°35'511.0
2018-Feb-04 18:01N 45°43' W 124°41'4 8.2
2018-Feb-04 17:31N 45°40' W 124°45'16 8.1
2018-Feb-04 15:31N 45°30' W 125°03'4 7.5
2018-Feb-04 14:58N 45°28' W 125°08'1 1.8
2018-Feb-04 14:30N 45°27' W 125°08'2 3.2
2018-Feb-04 14:00N 45°26' W 125°10'1211.0
2018-Feb-04 12:54N 45°18' W 125°23'711.5
2018-Feb-04 12:18N 45°13' W 125°30'511.5
2018-Feb-04 11:51N 45°10' W 125°36'511.2
2018-Feb-04 11:26N 45°07' W 125°40'32611.2
2018-Feb-03 06:19N 39°41' W 125°41'311.0
2018-Feb-03 06:01N 39°38' W 125°42'7110.3
2018-Feb-02 23:10N 38°27' W 125°41'210.3
2018-Feb-02 23:00N 38°25' W 125°40'1410.2
2018-Feb-02 21:38N 38°13' W 125°33'1610.9
2018-Feb-02 20:11N 38°00' W 125°20'211.2
2018-Feb-02 20:01N 37°59' W 125°19'1511.0
2018-Feb-02 18:38N 37°46' W 125°08'211.1
2018-Feb-02 18:28N 37°45' W 125°07'810.7
2018-Feb-02 17:44N 37°38' W 125°01'210.6
2018-Feb-02 17:30N 37°36' W 124°59'1010.8
2018-Feb-02 16:34N 37°28' W 124°52'111.0
2018-Feb-02 16:26N 37°27' W 124°51'1010.9
2018-Feb-02 15:29N 37°18' W 124°44'8011.0
2018-Feb-02 08:12N 36°12' W 123°46'211.0
2018-Feb-02 08:00N 36°11' W 123°45'611.0
2018-Feb-02 07:30N 36°06' W 123°41'510.8
2018-Feb-02 07:00N 36°02' W 123°37'510.9
2018-Feb-02 06:31N 35°57' W 123°34'510.9
2018-Feb-02 06:01N 35°53' W 123°30'510.7
2018-Feb-02 05:31N 35°48' W 123°26'510.7
2018-Feb-02 05:01N 35°44' W 123°22'510.3
2018-Feb-02 04:30N 35°40' W 123°19'510.4
2018-Feb-02 04:00N 35°36' W 123°15'510.4
2018-Feb-02 03:30N 35°31' W 123°11'510.6
2018-Feb-02 03:00N 35°27' W 123°07'510.9
2018-Feb-02 02:30N 35°23' W 123°04'510.7
2018-Feb-02 02:01N 35°18' W 122°60'510.6
2018-Feb-02 01:31N 35°14' W 122°56'510.5
2018-Feb-02 01:00N 35°10' W 122°52'610.3
2018-Feb-02 00:26N 35°05' W 122°48'410.3
2018-Feb-02 00:01N 35°01' W 122°45'510.4
2018-Feb-01 23:30N 34°57' W 122°42'510.4
2018-Feb-01 23:01N 34°52' W 122°38'1010.5
2018-Feb-01 22:01N 34°44' W 122°31'510.6
2018-Feb-01 21:30N 34°39' W 122°27'20 9.9
2018-Feb-01 19:30N 34°32' W 122°05'611.1
2018-Feb-01 18:57N 34°32' W 121°57'510.9
2018-Feb-01 18:30N 34°31' W 121°51'510.8
2018-Feb-01 18:00N 34°31' W 121°45'5 9.5
2018-Feb-01 17:30N 34°30' W 121°39'5 9.2
2018-Feb-01 17:01N 34°30' W 121°34'10 9.6
2018-Feb-01 16:01N 34°29' W 121°22'010.6
2018-Feb-01 15:59N 34°29' W 121°22'611.2
2018-Feb-01 15:29N 34°29' W 121°15'511.6
2018-Feb-01 15:00N 34°29' W 121°08'1711.0
2018-Feb-01 13:30N 34°26' W 120°49'510.8
2018-Feb-01 13:00N 34°24' W 120°42'510.7
2018-Feb-01 12:31N 34°22' W 120°36'510.9
2018-Feb-01 12:00N 34°21' W 120°30'1111.4
2018-Feb-01 11:00N 34°18' W 120°16'1611.2
2018-Feb-01 09:32N 34°14' W 119°57'011.1
2018-Feb-01 09:30N 34°14' W 119°57'711.1
2018-Feb-01 08:50N 34°12' W 119°48'411.8
2018-Feb-01 08:29N 34°11' W 119°43'1111.7
2018-Feb-01 07:31N 34°08' W 119°30'711.9
2018-Feb-01 06:56N 34°06' W 119°22'511.5
2018-Feb-01 06:31N 34°05' W 119°16'612.0
2018-Feb-01 06:00N 34°02' W 119°10'611.5
2018-Feb-01 05:30N 33°59' W 119°04'611.4
2018-Feb-01 05:01N 33°56' W 118°58'611.5
2018-Feb-01 04:30N 33°53' W 118°52'510.9
2018-Feb-01 04:00N 33°51' W 118°46'1311.1
2018-Feb-01 02:49N 33°44' W 118°33'511.4
2018-Feb-01 02:21N 33°42' W 118°27'411.3
2018-Feb-01 02:01N 33°40' W 118°23'  
Track history (hours):
 
Tides and Currents Weather Stations Pressure Air Temp Water Temp Dewpoint Dewpoint Depression Visibility Wind Speed Wind Dir Waves Ship Positions

Timaru Star

Last reported at 2018-Feb-11 01:42 UTC. Time now 2018-Feb-23 18:45 UTC.
Position N 48°19' W 125°17'.
Warning: this ship's position is 12 days out of date.

Length 175 m; draft 6.2 m.

Type: Cargo ship. MMSI: 367002208.

Date/timePositionNaut miles runAvg speedWind from/ knotsBaromVisibWave heightAir tempDewpointWater temp
2018-Feb-11 01:42N 48°19' W 125°17'311.0
2018-Feb-11 01:25N 48°21' W 125°13'710.3
2018-Feb-11 00:44N 48°26' W 125°06'310.4
2018-Feb-11 00:26N 48°28' W 125°03'4 9.9
2018-Feb-11 00:00N 48°31' W 124°58'510.7
2018-Feb-10 23:30N 48°31' W 124°50'611.0
2018-Feb-10 23:00N 48°30' W 124°42'511.1
2018-Feb-10 22:30N 48°28' W 124°34'611.1
2018-Feb-10 22:00N 48°26' W 124°26'510.9
2018-Feb-10 21:30N 48°24' W 124°19'510.7
2018-Feb-10 21:00N 48°22' W 124°11'510.6
2018-Feb-10 20:31N 48°20' W 124°04'510.6
2018-Feb-10 20:00N 48°18' W 123°56'22 8.8
2018-Feb-10 17:29N 48°23' W 123°24'5 9.7
2018-Feb-10 17:00N 48°23' W 123°17'510.6
2018-Feb-10 16:31N 48°28' W 123°12'713.3
2018-Feb-10 16:01N 48°34' W 123°13'713.3
2018-Feb-10 15:30N 48°41' W 123°15'611.8
2018-Feb-10 15:01N 48°44' W 123°08'612.7
2018-Feb-10 14:30N 48°48' W 123°00'612.8
2018-Feb-10 14:00N 48°53' W 123°07'612.9
2018-Feb-10 13:30N 48°58' W 123°14'713.0
2018-Feb-10 13:00N 49°02' W 123°21'611.1
2018-Feb-10 12:30N 49°08' W 123°23'713.0
2018-Feb-10 12:00N 49°14' W 123°21'611.1
2018-Feb-10 11:30N 49°19' W 123°16'3 4.8
2018-Feb-10 10:59N 49°20' W 123°13'0 0.2
2018-Feb-10 10:29N 49°20' W 123°13'0 0.0
2018-Feb-10 09:59N 49°20' W 123°13'0 0.2
2018-Feb-10 09:29N 49°20' W 123°13'0 0.1
2018-Feb-10 08:56N 49°20' W 123°13'0 0.1
2018-Feb-10 08:29N 49°20' W 123°13'0 0.1
2018-Feb-10 07:59N 49°20' W 123°13'0 0.1
2018-Feb-10 07:29N 49°20' W 123°13'0 0.1
2018-Feb-10 06:59N 49°20' W 123°13'0 0.0
2018-Feb-10 06:29N 49°20' W 123°13'0 0.1
2018-Feb-10 05:59N 49°20' W 123°13'0 0.1
2018-Feb-10 05:29N 49°20' W 123°13'0 0.0
2018-Feb-10 04:59N 49°20' W 123°13'0 0.0
2018-Feb-10 04:26N 49°20' W 123°13'0 0.1
2018-Feb-10 03:59N 49°20' W 123°13'0 0.1
2018-Feb-10 03:29N 49°20' W 123°13'0 0.0
2018-Feb-10 02:59N 49°20' W 123°13'0 0.0
2018-Feb-10 02:29N 49°20' W 123°13'0 0.0
2018-Feb-10 01:59N 49°20' W 123°13'0 0.0
2018-Feb-10 01:26N 49°20' W 123°13'0 0.1
2018-Feb-10 00:59N 49°20' W 123°13'0 0.0
2018-Feb-10 00:29N 49°20' W 123°13'0 0.1
2018-Feb-09 23:56N 49°20' W 123°13'0 0.2
2018-Feb-09 23:29N 49°20' W 123°13'0 0.1
2018-Feb-09 22:59N 49°20' W 123°13'0 0.0
2018-Feb-09 22:44N 49°20' W 123°13'0 0.0
2018-Feb-09 17:31N 49°20' W 123°13'0 0.0
2018-Feb-09 16:31N 49°20' W 123°13'6 1.1
2018-Feb-09 10:30N 49°18' W 123°04'0 0.0
2018-Feb-08 03:30N 49°18' W 123°04'1 2.9
2018-Feb-08 03:00N 49°18' W 123°06'3 6.2
2018-Feb-08 02:30N 49°17' W 123°11'0 0.1
2018-Feb-08 01:25N 49°17' W 123°11'0 0.1
2018-Feb-08 00:58N 49°17' W 123°11'0 0.1
2018-Feb-08 00:28N 49°17' W 123°11'0 0.2
2018-Feb-07 23:58N 49°17' W 123°11'0 0.0
2018-Feb-07 23:16N 49°17' W 123°11'0 0.0
2018-Feb-07 22:58N 49°17' W 123°11'0 0.1
2018-Feb-07 22:28N 49°17' W 123°11'0 0.1
2018-Feb-07 21:58N 49°17' W 123°11'0 0.0
2018-Feb-07 21:28N 49°17' W 123°11'59 4.9
2018-Feb-07 09:29N 48°18' W 123°25'5 8.8
2018-Feb-07 08:57N 48°14' W 123°28'510.0
2018-Feb-07 08:28N 48°13' W 123°36'11 8.7
2018-Feb-07 07:12N 48°13' W 123°52'310.6
2018-Feb-07 06:54N 48°14' W 123°57'410.2
2018-Feb-07 06:30N 48°15' W 124°02'4 8.5
2018-Feb-07 06:00N 48°17' W 124°08'5 9.3
2018-Feb-07 05:30N 48°19' W 124°14'611.4
2018-Feb-07 05:00N 48°22' W 124°22'511.1
2018-Feb-07 04:30N 48°24' W 124°30'4 8.1
2018-Feb-07 04:00N 48°26' W 124°35'4 8.8
2018-Feb-07 03:30N 48°28' W 124°41'611.2
2018-Feb-07 02:58N 48°28' W 124°50'510.1
2018-Feb-07 02:30N 48°29' W 124°57'510.8
2018-Feb-07 02:00N 48°25' W 125°03'6 8.3
2018-Feb-07 01:17N 48°19' W 125°07'1 3.8
2018-Feb-07 00:58N 48°18' W 125°08'9511.6
2018-Feb-06 16:44N 46°51' W 126°04'512.2
2018-Feb-06 16:20N 46°46' W 126°03'412.2
2018-Feb-06 15:59N 46°42' W 126°01'612.3
2018-Feb-06 15:30N 46°36' W 125°59'510.5
2018-Feb-06 15:00N 46°34' W 125°53'711.7
2018-Feb-06 14:27N 46°32' W 125°43'611.7
2018-Feb-06 13:53N 46°30' W 125°35'511.8
2018-Feb-06 13:28N 46°28' W 125°28'511.7
2018-Feb-06 13:00N 46°27' W 125°20'611.7
2018-Feb-06 12:30N 46°25' W 125°12'611.4
2018-Feb-06 12:00N 46°23' W 125°04'611.4
2018-Feb-06 11:30N 46°22' W 124°56'611.1
2018-Feb-06 11:00N 46°20' W 124°48'510.9
2018-Feb-06 10:30N 46°18' W 124°41'510.6
2018-Feb-06 10:00N 46°17' W 124°34'510.8
2018-Feb-06 09:30N 46°15' W 124°26'611.1
2018-Feb-06 09:00N 46°13' W 124°19'710.7
2018-Feb-06 08:23N 46°13' W 124°09'910.3
2018-Feb-06 07:30N 46°12' W 123°56'510.7
2018-Feb-06 07:00N 46°12' W 123°48'1612.4
2018-Feb-06 05:44N 46°15' W 123°26'26 7.9
2018-Feb-06 02:28N 46°03' W 122°53'0 0.0
2018-Feb-06 01:58N 46°03' W 122°53'0 0.0
2018-Feb-06 01:28N 46°03' W 122°53'0 0.0
2018-Feb-06 00:58N 46°03' W 122°53'0 0.0
2018-Feb-06 00:28N 46°03' W 122°53'0 0.0
2018-Feb-05 23:55N 46°03' W 122°53'0 0.0
2018-Feb-05 23:28N 46°03' W 122°53'0 0.0
2018-Feb-05 22:58N 46°03' W 122°53'0 0.0
2018-Feb-05 22:25N 46°03' W 122°53'0 0.0
2018-Feb-05 21:58N 46°03' W 122°53'0 0.0
2018-Feb-05 21:25N 46°03' W 122°53'0 0.0
2018-Feb-05 20:49N 46°03' W 122°53'0 0.0
2018-Feb-05 20:22N 46°03' W 122°53'0 0.0
2018-Feb-05 19:58N 46°03' W 122°53'0 0.0
2018-Feb-05 19:28N 46°03' W 122°53'0 0.0
2018-Feb-05 18:58N 46°03' W 122°53'0 0.0
2018-Feb-05 18:28N 46°03' W 122°53'0 0.0
2018-Feb-05 17:52N 46°03' W 122°53'0 0.0
2018-Feb-05 17:25N 46°03' W 122°53'0 0.0
2018-Feb-05 16:55N 46°03' W 122°53'0 0.0
2018-Feb-05 16:25N 46°03' W 122°53'0 0.0
2018-Feb-05 15:58N 46°03' W 122°53'0 0.0
2018-Feb-05 15:28N 46°03' W 122°53'0 0.0
2018-Feb-05 14:55N 46°03' W 122°53'0 0.0
2018-Feb-05 14:28N 46°03' W 122°53'0 0.0
2018-Feb-05 13:58N 46°03' W 122°53'0 0.0
2018-Feb-05 13:19N 46°03' W 122°53'0 0.0
2018-Feb-05 12:58N 46°03' W 122°53'0 0.0
2018-Feb-05 12:28N 46°03' W 122°53'0 0.0
2018-Feb-05 11:58N 46°03' W 122°53'0 0.0
2018-Feb-05 11:28N 46°03' W 122°53'0 0.0
2018-Feb-05 10:58N 46°03' W 122°53'0 0.0
2018-Feb-05 10:28N 46°03' W 122°53'0 0.0
2018-Feb-05 09:58N 46°03' W 122°53'0 0.0
2018-Feb-05 09:25N 46°03' W 122°53'0 0.0
2018-Feb-05 08:58N 46°03' W 122°53'0 0.0
2018-Feb-05 08:22N 46°03' W 122°53'0 0.0
2018-Feb-05 07:58N 46°03' W 122°53'0 0.0
2018-Feb-05 07:25N 46°03' W 122°53'0 0.0
2018-Feb-05 06:58N 46°03' W 122°53'0 0.0
2018-Feb-05 06:28N 46°03' W 122°53'0 0.0
2018-Feb-05 05:25N 46°03' W 122°53'0 0.0
2018-Feb-05 04:58N 46°03' W 122°53'0 0.0
2018-Feb-05 04:25N 46°03' W 122°53'1 1.7
2018-Feb-05 04:00N 46°03' W 122°53'4 8.5
2018-Feb-05 03:30N 46°06' W 122°57'611.1
2018-Feb-05 03:00N 46°10' W 123°04'510.8
2018-Feb-05 02:30N 46°11' W 123°11'611.7
2018-Feb-05 02:00N 46°09' W 123°19'510.5
2018-Feb-05 01:30N 46°11' W 123°26'611.1
2018-Feb-05 01:00N 46°16' W 123°29'612.8
2018-Feb-05 00:30N 46°16' W 123°38'713.0
2018-Feb-05 00:00N 46°13' W 123°46'5 9.7
2018-Feb-04 23:30N 46°11' W 123°53'611.5
2018-Feb-04 23:00N 46°15' W 124°00'611.5
2018-Feb-04 22:31N 46°13' W 124°08'9 7.4
2018-Feb-04 21:15N 46°06' W 124°16'2 8.6
2018-Feb-04 21:01N 46°04' W 124°18'9 8.0
2018-Feb-04 19:56N 45°57' W 124°25'3 8.2
2018-Feb-04 19:31N 45°54' W 124°27'4 7.9
2018-Feb-04 19:00N 45°51' W 124°31'510.1
2018-Feb-04 18:30N 45°47' W 124°35'511.0
2018-Feb-04 18:01N 45°43' W 124°41'4 8.2
2018-Feb-04 17:31N 45°40' W 124°45'16 8.1
2018-Feb-04 15:31N 45°30' W 125°03'4 7.5
2018-Feb-04 14:58N 45°28' W 125°08'1 1.8
2018-Feb-04 14:30N 45°27' W 125°08'2 3.2
2018-Feb-04 14:00N 45°26' W 125°10'1211.0
2018-Feb-04 12:54N 45°18' W 125°23'711.5
2018-Feb-04 12:18N 45°13' W 125°30'511.5
2018-Feb-04 11:51N 45°10' W 125°36'511.2
2018-Feb-04 11:26N 45°07' W 125°40'32611.2
2018-Feb-03 06:19N 39°41' W 125°41'311.0
2018-Feb-03 06:01N 39°38' W 125°42'7110.3
2018-Feb-02 23:10N 38°27' W 125°41'210.3
2018-Feb-02 23:00N 38°25' W 125°40'1410.2
2018-Feb-02 21:38N 38°13' W 125°33'1610.9
2018-Feb-02 20:11N 38°00' W 125°20'211.2
2018-Feb-02 20:01N 37°59' W 125°19'1511.0
2018-Feb-02 18:38N 37°46' W 125°08'211.1
2018-Feb-02 18:28N 37°45' W 125°07'810.7
2018-Feb-02 17:44N 37°38' W 125°01'210.6
2018-Feb-02 17:30N 37°36' W 124°59'1010.8
2018-Feb-02 16:34N 37°28' W 124°52'111.0
2018-Feb-02 16:26N 37°27' W 124°51'1010.9
2018-Feb-02 15:29N 37°18' W 124°44'8011.0
2018-Feb-02 08:12N 36°12' W 123°46'211.0
2018-Feb-02 08:00N 36°11' W 123°45'611.0
2018-Feb-02 07:30N 36°06' W 123°41'510.8
2018-Feb-02 07:00N 36°02' W 123°37'510.9
2018-Feb-02 06:31N 35°57' W 123°34'510.9
2018-Feb-02 06:01N 35°53' W 123°30'510.7
2018-Feb-02 05:31N 35°48' W 123°26'510.7
2018-Feb-02 05:01N 35°44' W 123°22'510.3
2018-Feb-02 04:30N 35°40' W 123°19'510.4
2018-Feb-02 04:00N 35°36' W 123°15'510.4
2018-Feb-02 03:30N 35°31' W 123°11'510.6
2018-Feb-02 03:00N 35°27' W 123°07'510.9
2018-Feb-02 02:30N 35°23' W 123°04'510.7
2018-Feb-02 02:01N 35°18' W 122°60'510.6
2018-Feb-02 01:31N 35°14' W 122°56'510.5
2018-Feb-02 01:00N 35°10' W 122°52'610.3
2018-Feb-02 00:26N 35°05' W 122°48'410.3
2018-Feb-02 00:01N 35°01' W 122°45'510.4
2018-Feb-01 23:30N 34°57' W 122°42'510.4
2018-Feb-01 23:01N 34°52' W 122°38'1010.5
2018-Feb-01 22:01N 34°44' W 122°31'510.6
2018-Feb-01 21:30N 34°39' W 122°27'20 9.9
2018-Feb-01 19:30N 34°32' W 122°05'611.1
2018-Feb-01 18:57N 34°32' W 121°57'510.9
2018-Feb-01 18:30N 34°31' W 121°51'510.8
2018-Feb-01 18:00N 34°31' W 121°45'5 9.5
2018-Feb-01 17:30N 34°30' W 121°39'5 9.2
2018-Feb-01 17:01N 34°30' W 121°34'10 9.6
2018-Feb-01 16:01N 34°29' W 121°22'010.6
2018-Feb-01 15:59N 34°29' W 121°22'611.2
2018-Feb-01 15:29N 34°29' W 121°15'511.6
2018-Feb-01 15:00N 34°29' W 121°08'1711.0
2018-Feb-01 13:30N 34°26' W 120°49'510.8
2018-Feb-01 13:00N 34°24' W 120°42'510.7
2018-Feb-01 12:31N 34°22' W 120°36'510.9
2018-Feb-01 12:00N 34°21' W 120°30'1111.4
2018-Feb-01 11:00N 34°18' W 120°16'1611.2
2018-Feb-01 09:32N 34°14' W 119°57'011.1
2018-Feb-01 09:30N 34°14' W 119°57'711.1
2018-Feb-01 08:50N 34°12' W 119°48'411.8
2018-Feb-01 08:29N 34°11' W 119°43'1111.7
2018-Feb-01 07:31N 34°08' W 119°30'711.9
2018-Feb-01 06:56N 34°06' W 119°22'511.5
2018-Feb-01 06:31N 34°05' W 119°16'612.0
2018-Feb-01 06:00N 34°02' W 119°10'611.5
2018-Feb-01 05:30N 33°59' W 119°04'611.4
2018-Feb-01 05:01N 33°56' W 118°58'611.5
2018-Feb-01 04:30N 33°53' W 118°52'510.9
2018-Feb-01 04:00N 33°51' W 118°46'1311.1
2018-Feb-01 02:49N 33°44' W 118°33'511.4
2018-Feb-01 02:21N 33°42' W 118°27'411.3
2018-Feb-01 02:01N 33°40' W 118°23'  

Dump ship's entire track history